Time;durP1;ratioP1;P1;durP2;ratioP2;P2;SDS_P1;SDS_P2;PMS_P1;PMS_P2;Temp;Humidity;BMP_temperature;BMP_pressure;BME280_temperature;BME280_humidity;BME280_pressure;Samples;Min_cycle;Max_cycle;Signal;HPM_P1;HPM_P2
2023/08/02 00:01:48;;;;;;;7.28;1.50;;;;;;;25.41;100.00;99210.78;5071383;28;20669;-72
2023/08/02 00:04:15;;;;;;;1.75;0.80;;;;;;;25.31;100.00;99199.00;5071575;28;20687;-71
2023/08/02 00:06:42;;;;;;;1.67;0.90;;;;;;;25.39;100.00;99207.38;5071648;28;20202;-72
2023/08/02 00:09:08;;;;;;;1.88;0.80;;;;;;;25.31;100.00;99204.31;5071918;28;20213;-72
2023/08/02 00:11:35;;;;;;;2.13;0.90;;;;;;;25.28;100.00;99200.06;5071736;28;20198;-72
2023/08/02 00:14:02;;;;;;;4.10;1.25;;;;;;;25.34;100.00;99204.13;5071409;28;20209;-71
2023/08/02 00:16:29;;;;;;;1.17;0.77;;;;;;;24.77;100.00;99118.19;5019632;28;20194;-72
2023/08/02 00:18:57;;;;;;;1.23;0.75;;;;;;;25.32;100.00;99208.69;5071351;28;20202;-71
2023/08/02 00:21:23;;;;;;;0.90;0.80;;;;;;;25.06;100.00;99173.94;5071410;28;20191;-71
2023/08/02 00:23:50;;;;;;;3.30;1.17;;;;;;;25.23;100.00;99201.25;5071294;28;20234;-71
2023/08/02 00:26:17;;;;;;;4.15;1.27;;;;;;;25.25;100.00;99207.34;5071622;28;20285;-72
2023/08/02 00:28:44;;;;;;;2.35;0.90;;;;;;;25.24;100.00;99208.28;5071296;28;20195;-71
2023/08/02 00:31:10;;;;;;;1.77;0.82;;;;;;;25.22;100.00;99204.88;5071198;28;20199;-72
2023/08/02 00:33:37;;;;;;;2.63;1.08;;;;;;;25.25;100.00;99210.00;5071214;28;20206;-72
2023/08/02 00:36:05;;;;;;;4.18;1.20;;;;;;;25.14;100.00;99202.66;5070929;28;20198;-71
2023/08/02 00:38:32;;;;;;;4.47;1.23;;;;;;;24.62;100.00;99115.47;5071456;28;20202;-71
2023/08/02 00:41:03;;;;;;;3.45;1.15;;;;;;;25.24;100.00;99205.63;5071319;28;20330;-71
2023/08/02 00:43:30;;;;;;;6.03;1.48;;;;;;;25.07;100.00;99199.53;5035894;28;20282;-71
2023/08/02 00:45:57;;;;;;;3.03;1.10;;;;;;;25.14;100.00;99214.13;5070827;28;20688;-71
2023/08/02 00:48:23;;;;;;;4.97;1.70;;;;;;;25.17;100.00;99208.66;5070977;28;20586;-71
2023/08/02 00:50:50;;;;;;;3.38;1.08;;;;;;;25.09;100.00;99194.97;5071038;28;20668;-71
2023/08/02 00:53:19;;;;;;;4.55;1.30;;;;;;;25.14;100.00;99210.63;5071245;28;20210;-71
2023/08/02 00:55:46;;;;;;;3.35;1.10;;;;;;;24.95;100.00;99189.59;5071047;28;20268;-71
2023/08/02 00:58:12;;;;;;;5.57;1.45;;;;;;;24.51;100.00;99117.88;5070969;28;20199;-70
2023/08/02 01:00:39;;;;;;;3.47;1.10;;;;;;;25.15;100.00;99210.50;5070824;28;20218;-70
2023/08/02 01:03:06;;;;;;;7.18;1.92;;;;;;;24.95;100.00;99199.34;5070568;28;20202;-70
2023/08/02 01:05:38;;;;;;;7.28;1.58;;;;;;;25.15;100.00;99209.66;5070927;28;20202;-70
2023/08/02 01:08:08;;;;;;;3.70;1.50;;;;;;;25.06;100.00;99215.50;5070787;28;20194;-71
2023/08/02 01:10:44;;;;;;;3.17;1.00;;;;;;;24.99;100.00;99209.72;5071009;28;20194;-72
2023/08/02 01:13:14;;;;;;;5.95;1.45;;;;;;;25.04;100.00;99218.25;5070855;28;20199;-71
2023/08/02 01:15:42;;;;;;;1.30;0.80;;;;;;;25.04;100.00;99215.59;5036098;28;20203;-71
2023/08/02 01:18:09;;;;;;;3.92;2.13;;;;;;;25.09;100.00;99216.19;5035932;28;20202;-72
2023/08/02 01:20:37;;;;;;;6.40;1.85;;;;;;;24.87;100.00;99194.50;5070852;28;20207;-71
2023/08/02 01:23:04;;;;;;;5.05;1.23;;;;;;;24.98;100.00;99210.66;5070642;28;20191;-71
2023/08/02 01:25:33;;;;;;;2.05;1.08;;;;;;;25.03;100.00;99208.59;5018992;28;20662;-71
2023/08/02 01:28:03;;;;;;;1.20;0.80;;;;;;;25.02;100.00;99214.84;5070919;28;20230;-71
2023/08/02 01:30:35;;;;;;;2.10;1.02;;;;;;;25.02;100.00;99209.53;5070552;28;20222;-71
2023/08/02 01:33:03;;;;;;;3.90;1.23;;;;;;;25.04;100.00;99212.94;5070515;28;20191;-71
2023/08/02 01:35:30;;;;;;;2.53;1.27;;;;;;;24.98;100.00;99215.94;5070799;28;20204;-71
2023/08/02 01:37:59;;;;;;;4.38;1.52;;;;;;;25.12;100.00;99216.00;5070536;28;20198;-71
2023/08/02 01:40:26;;;;;;;2.55;1.00;;;;;;;24.90;100.00;99199.59;5070721;28;20210;-71
2023/08/02 01:42:52;;;;;;;4.15;1.27;;;;;;;25.03;100.00;99224.50;5070351;28;20201;-71
2023/08/02 01:45:19;;;;;;;5.18;1.48;;;;;;;24.89;100.00;99205.03;5070527;28;20226;-71
2023/08/02 01:47:47;;;;;;;3.78;1.20;;;;;;;25.03;100.00;99223.66;5035516;28;20248;-71
2023/08/02 01:50:14;;;;;;;6.60;1.67;;;;;;;25.04;100.00;99223.53;5070240;28;20645;-71
2023/08/02 01:52:41;;;;;;;2.42;1.10;;;;;;;24.96;100.00;99215.19;5070508;28;20203;-72
2023/08/02 01:55:09;;;;;;;4.35;1.40;;;;;;;24.95;100.00;99202.00;5070114;28;20194;-72
2023/08/02 01:57:36;;;;;;;2.38;1.10;;;;;;;25.12;100.00;99233.72;5071829;28;20203;-72
2023/08/02 02:00:03;;;;;;;2.85;1.10;;;;;;;25.20;100.00;99233.28;5074079;28;20647;-72
2023/08/02 02:02:30;;;;;;;5.25;1.40;;;;;;;25.16;100.00;99228.16;5074002;28;20206;-72
2023/08/02 02:04:57;;;;;;;0.90;0.90;;;;;;;25.11;100.00;99232.84;5073992;28;20235;-72
2023/08/02 02:07:24;;;;;;;1.23;0.80;;;;;;;24.62;100.00;99149.94;5074216;28;20623;-71
2023/08/02 02:09:50;;;;;;;0.70;0.70;;;;;;;25.09;100.00;99240.06;5073861;28;20673;-71
2023/08/02 02:12:19;;;;;;;1.75;0.93;;;;;;;25.03;100.00;99219.19;5073758;28;20206;-71
2023/08/02 02:14:45;;;;;;;0.88;0.80;;;;;;;24.99;100.00;99225.63;5074198;28;20199;-71
2023/08/02 02:17:12;;;;;;;2.50;0.90;;;;;;;24.98;100.00;99242.47;5073771;28;20582;-71
2023/08/02 02:19:39;;;;;;;2.28;1.10;;;;;;;24.92;100.00;99248.13;5073858;28;20195;-71
2023/08/02 02:22:06;;;;;;;2.53;0.93;;;;;;;24.88;100.00;99243.94;5073538;28;20230;-71
2023/08/02 02:24:33;;;;;;;3.38;1.10;;;;;;;24.86;100.00;99252.94;5073365;28;20227;-71
2023/08/02 02:27:00;;;;;;;4.63;1.25;;;;;;;24.90;100.00;99243.88;5021557;28;20274;-70
2023/08/02 02:29:28;;;;;;;3.75;1.27;;;;;;;24.82;100.00;99209.78;5073490;28;20590;-70
2023/08/02 02:31:54;;;;;;;4.57;1.42;;;;;;;24.72;100.00;99235.13;5073386;28;20199;-71
2023/08/02 02:34:21;;;;;;;4.82;1.33;;;;;;;24.53;100.00;99221.19;5073481;28;20215;-72
2023/08/02 02:36:49;;;;;;;6.43;1.50;;;;;;;24.65;100.00;99241.69;5073452;28;20304;-71
2023/08/02 02:39:16;;;;;;;2.78;1.05;;;;;;;24.71;100.00;99241.38;5073308;28;20289;-71
2023/08/02 02:41:42;;;;;;;7.18;1.73;;;;;;;24.77;100.00;99232.19;5073254;28;20218;-71
2023/08/02 02:44:09;;;;;;;2.92;1.20;;;;;;;24.74;100.00;99235.88;5073311;28;20657;-71
2023/08/02 02:46:37;;;;;;;5.57;1.45;;;;;;;24.63;100.00;99240.94;5073094;28;20692;-71
2023/08/02 02:49:04;;;;;;;4.28;1.30;;;;;;;24.54;100.00;99233.50;5073022;28;20265;-71
2023/08/02 02:51:31;;;;;;;5.00;1.38;;;;;;;24.55;100.00;99236.03;5072927;28;20664;-70
2023/08/02 02:53:57;;;;;;;2.72;1.00;;;;;;;24.42;100.00;99207.66;5072906;28;20198;-71
2023/08/02 02:56:25;;;;;;;1.65;0.95;;;;;;;24.45;100.00;99218.09;5021675;28;20207;-71
2023/08/02 02:58:52;;;;;;;0.70;0.70;;;;;;;24.55;100.00;99235.19;5073137;28;20289;-70
2023/08/02 03:01:19;;;;;;;4.70;1.30;;;;;;;24.56;100.00;99236.91;5020812;28;20210;-70
2023/08/02 03:03:47;;;;;;;2.80;0.98;;;;;;;24.43;100.00;99210.25;5072445;28;20210;-71
2023/08/02 03:06:13;;;;;;;2.30;1.15;;;;;;;24.46;100.00;99231.28;5072444;28;20275;-70
2023/08/02 03:08:40;;;;;;;2.22;0.90;;;;;;;24.33;100.00;99219.59;5072861;28;20207;-70
2023/08/02 03:11:07;;;;;;;1.08;0.77;;;;;;;24.40;100.00;99231.59;5072688;28;20214;-71
2023/08/02 03:13:34;;;;;;;3.75;1.25;;;;;;;24.30;100.00;99213.63;5072751;28;20195;-72
2023/08/02 03:16:00;;;;;;;4.88;1.45;;;;;;;24.29;100.00;99226.03;5072565;28;20253;-70
2023/08/02 03:18:27;;;;;;;1.35;0.88;;;;;;;24.19;100.00;99227.47;5020829;28;20194;-71
2023/08/02 03:20:55;;;;;;;3.72;1.27;;;;;;;24.25;100.00;99228.94;5020688;28;20638;-71
2023/08/02 03:23:22;;;;;;;3.78;1.15;;;;;;;24.24;100.00;99224.56;5072501;28;20264;-71
2023/08/02 03:25:49;;;;;;;3.55;1.20;;;;;;;24.12;100.00;99215.44;5072360;28;20226;-71
2023/08/02 03:28:15;;;;;;;4.13;1.23;;;;;;;24.19;100.00;99235.41;5072256;28;20213;-71
2023/08/02 03:30:42;;;;;;;3.63;1.17;;;;;;;24.30;100.00;99226.88;5063397;28;20224;-71
2023/08/02 03:33:09;;;;;;;5.50;1.40;;;;;;;24.29;100.00;99230.47;5010516;28;20204;-72
2023/08/02 03:35:36;;;;;;;3.90;1.20;;;;;;;24.36;100.00;99231.84;5060297;28;20637;-71
2023/08/02 03:38:04;;;;;;;6.47;1.60;;;;;;;24.43;100.00;99235.88;5057908;28;20592;-71
2023/08/02 03:40:32;;;;;;;5.13;1.35;;;;;;;24.56;100.00;99235.13;5072257;28;20199;-70
2023/08/02 03:42:58;;;;;;;5.28;1.40;;;;;;;24.79;100.00;99225.88;5066221;28;20209;-69
2023/08/02 03:45:25;;;;;;;4.03;1.30;;;;;;;25.11;100.00;99237.34;5070104;28;20234;-71
2023/08/02 03:47:52;;;;;;;6.18;1.42;;;;;;;25.34;100.00;99210.28;5065048;28;20208;-71
2023/08/02 03:50:19;;;;;;;6.57;1.60;;;;;;;26.11;100.00;99242.78;5061181;28;20242;-71
2023/08/02 03:52:46;;;;;;;7.28;1.58;;;;;;;26.65;100.00;99244.78;5007735;28;20757;-71
2023/08/02 03:55:14;;;;;;;6.65;1.70;;;;;;;27.21;100.00;99222.47;5061815;28;20202;-71
2023/08/02 03:57:41;;;;;;;5.82;1.77;;;;;;;27.83;96.71;99243.03;5061719;28;20195;-70
2023/08/02 04:00:09;;;;;;;5.55;1.40;;;;;;;28.39;96.65;99260.44;5061893;28;20210;-71
2023/08/02 04:02:35;;;;;;;5.30;1.38;;;;;;;28.92;92.80;99261.94;5055722;28;20220;-71
2023/08/02 04:05:02;;;;;;;7.85;1.60;;;;;;;28.86;90.17;99195.63;5060640;28;20226;-71
2023/08/02 04:07:29;;;;;;;5.78;1.45;;;;;;;29.25;86.69;99247.06;5060351;28;20207;-71
2023/08/02 04:09:56;;;;;;;5.65;1.40;;;;;;;28.84;89.54;99269.66;5027979;28;20206;-71
2023/08/02 04:12:24;;;;;;;5.30;1.35;;;;;;;28.78;85.91;99263.91;5062085;28;20199;-71
2023/08/02 04:14:51;;;;;;;7.78;1.60;;;;;;;28.39;88.08;99235.59;5059902;28;20206;-71
2023/08/02 04:17:17;;;;;;;5.70;1.45;;;;;;;28.41;88.65;99263.84;5060680;28;20203;-72
2023/08/02 04:19:44;;;;;;;8.00;1.85;;;;;;;28.29;86.25;99256.69;5060525;28;20209;-71
2023/08/02 04:22:11;;;;;;;4.20;1.20;;;;;;;28.35;85.49;99255.44;5061996;28;20203;-71
2023/08/02 04:24:38;;;;;;;8.07;1.60;;;;;;;28.75;83.32;99243.63;5059687;28;20215;-71
2023/08/02 04:27:05;;;;;;;7.72;1.88;;;;;;;29.27;75.82;99248.66;5060898;28;20649;-71
2023/08/02 04:29:33;;;;;;;9.57;1.77;;;;;;;29.04;76.04;99228.13;5059641;28;20198;-70
2023/08/02 04:32:00;;;;;;;6.80;1.48;;;;;;;29.08;78.77;99263.44;5061487;28;20201;-70
2023/08/02 04:34:26;;;;;;;6.45;1.45;;;;;;;28.77;81.22;99263.06;5061104;28;20211;-70
2023/08/02 04:36:53;;;;;;;8.35;1.60;;;;;;;28.14;84.73;99264.94;5061060;28;20256;-71
2023/08/02 04:39:20;;;;;;;8.02;1.70;;;;;;;27.88;90.48;99258.72;5060943;28;20692;-71
2023/08/02 04:41:47;;;;;;;6.95;1.50;;;;;;;27.41;90.35;99261.91;5060829;28;20709;-71
2023/08/02 04:44:13;;;;;;;6.53;1.58;;;;;;;27.16;94.65;99251.19;5059574;28;20200;-71
2023/08/02 04:46:41;;;;;;;8.82;1.80;;;;;;;26.71;96.43;99250.53;5058600;28;20194;-71
2023/08/02 04:49:08;;;;;;;6.50;1.48;;;;;;;26.72;100.00;99262.03;5058778;28;20205;-70
2023/08/02 04:51:36;;;;;;;8.30;1.75;;;;;;;26.60;100.00;99261.00;5061718;28;20222;-71
2023/08/02 04:54:03;;;;;;;6.53;1.50;;;;;;;26.41;100.00;99244.50;5059756;28;20203;-71
2023/08/02 04:56:30;;;;;;;7.65;1.70;;;;;;;26.32;100.00;99259.25;5051657;28;20670;-70
2023/08/02 04:58:57;;;;;;;6.25;1.55;;;;;;;26.22;100.00;99265.22;5051210;28;20231;-70
2023/08/02 05:01:24;;;;;;;12.88;2.22;;;;;;;26.30;100.00;99265.59;5051831;28;20688;-71
2023/08/02 05:03:53;;;;;;;8.70;1.77;;;;;;;26.52;100.00;99265.97;5067243;28;20556;-73
2023/08/02 05:06:20;;;;;;;4.97;1.25;;;;;;;26.74;100.00;99270.75;5066864;28;20231;-72
2023/08/02 05:08:47;;;;;;;5.63;1.70;;;;;;;26.87;100.00;99258.41;5059032;28;20199;-72
2023/08/02 05:11:13;;;;;;;8.20;2.25;;;;;;;27.14;99.35;99263.75;5057618;28;20584;-71
2023/08/02 05:13:40;;;;;;;8.63;1.65;;;;;;;27.69;94.84;99276.91;5067363;28;20207;-71
2023/08/02 05:16:12;;;;;;;5.63;1.42;;;;;;;28.44;88.34;99284.09;5070617;28;20206;-72
2023/08/02 05:18:39;;;;;;;10.20;1.88;;;;;;;29.02;82.64;99284.31;5068769;28;20213;-71
2023/08/02 05:21:12;;;;;;;7.82;1.58;;;;;;;29.95;76.06;99285.34;5058002;28;20198;-71
2023/08/02 05:23:39;;;;;;;16.05;2.65;;;;;;;30.62;70.26;99296.13;5070450;28;20263;-72
2023/08/02 05:26:06;;;;;;;5.20;1.50;;;;;;;30.89;68.27;99264.47;5070283;28;20226;-71
2023/08/02 05:28:32;;;;;;;9.73;1.80;;;;;;;31.55;66.12;99292.91;5070095;28;20206;-71
2023/08/02 05:30:59;;;;;;;7.35;1.58;;;;;;;31.44;62.97;99291.09;5070813;28;20202;-71
2023/08/02 05:33:26;;;;;;;7.25;1.55;;;;;;;31.63;61.05;99293.13;5037921;28;20203;-70
2023/08/02 05:35:53;;;;;;;6.82;1.70;;;;;;;32.15;59.83;99291.38;5068624;28;20215;-71
2023/08/02 05:38:21;;;;;;;5.30;1.30;;;;;;;32.63;56.71;99279.09;5063744;28;20217;-71
2023/08/02 05:40:48;;;;;;;9.18;1.35;;;;;;;32.79;57.74;99290.16;5010538;28;20207;-71
2023/08/02 05:43:14;;;;;;;14.15;1.73;;;;;;;32.66;57.34;99280.63;5051890;28;20202;-71
2023/08/02 05:45:41;;;;;;;21.67;2.35;;;;;;;32.72;55.88;99280.09;5065383;28;20234;-70
2023/08/02 05:48:08;;;;;;;12.82;1.70;;;;;;;32.04;58.90;99281.53;5068809;28;20203;-70
2023/08/02 05:50:35;;;;;;;11.88;1.77;;;;;;;30.71;64.75;99285.56;5059631;28;20234;-70
2023/08/02 05:53:01;;;;;;;8.55;1.50;;;;;;;29.68;75.07;99288.28;5053975;28;20203;-70
2023/08/02 05:55:29;;;;;;;13.52;1.85;;;;;;;29.74;78.55;99293.16;5031850;28;20565;-70
2023/08/02 05:57:56;;;;;;;10.20;1.52;;;;;;;30.00;77.07;99273.31;5056085;28;20274;-71
2023/08/02 06:00:23;;;;;;;11.30;1.65;;;;;;;30.20;77.80;99284.28;5055295;28;20214;-71
2023/08/02 06:02:50;;;;;;;9.73;1.48;;;;;;;29.70;80.19;99286.34;5051979;28;20229;-70
2023/08/02 06:05:17;;;;;;;15.57;2.22;;;;;;;29.60;81.59;99280.00;5060957;28;20700;-71
2023/08/02 06:07:43;;;;;;;15.70;2.03;;;;;;;29.53;83.94;99284.13;5053975;28;20211;-70
2023/08/02 06:10:10;;;;;;;16.10;1.88;;;;;;;29.51;85.31;99286.03;5067059;28;20199;-71
2023/08/02 06:12:38;;;;;;;10.88;1.60;;;;;;;29.54;86.07;99285.78;5072570;28;20201;-71
2023/08/02 06:15:06;;;;;;;13.15;1.77;;;;;;;29.19;86.84;99256.38;5072680;28;20833;-71
2023/08/02 06:17:33;;;;;;;12.43;1.73;;;;;;;29.33;86.75;99284.72;5072875;28;20647;-71
2023/08/02 06:20:00;;;;;;;13.27;1.85;;;;;;;29.15;88.14;99288.72;5072641;28;20214;-70
2023/08/02 06:22:27;;;;;;;6.53;1.60;;;;;;;28.96;90.75;99274.09;5073468;28;20640;-71
2023/08/02 06:24:53;;;;;;;12.07;1.73;;;;;;;29.10;90.38;99297.09;5073273;28;20269;-78
2023/08/02 06:27:20;;;;;;;10.38;1.60;;;;;;;29.34;89.63;99298.00;5074239;28;20194;-77
2023/08/02 06:29:48;;;;;;;19.83;2.22;;;;;;;29.39;89.07;99298.50;5074616;28;20233;-79
2023/08/02 06:32:15;;;;;;;13.15;2.08;;;;;;;29.03;91.23;99312.72;5073872;28;20199;-78
2023/08/02 06:34:42;;;;;;;10.95;1.90;;;;;;;28.95;93.73;99309.75;5018518;28;20207;-78
2023/08/02 06:37:08;;;;;;;11.00;1.60;;;;;;;28.91;93.57;99262.88;5058495;28;20207;-77
2023/08/02 06:39:35;;;;;;;12.63;1.85;;;;;;;29.16;93.26;99301.13;5021800;28;20221;-76
2023/08/02 06:42:02;;;;;;;12.05;1.73;;;;;;;29.25;94.83;99301.28;5073354;28;20589;-77
2023/08/02 06:44:29;;;;;;;10.75;1.55;;;;;;;29.37;96.14;99320.94;5001970;28;20207;-76
2023/08/02 06:46:57;;;;;;;12.15;1.80;;;;;;;29.29;98.40;99323.31;5070015;28;20230;-76
2023/08/02 06:49:24;;;;;;;11.75;1.98;;;;;;;29.33;95.68;99335.47;5073922;28;20272;-79
2023/08/02 06:51:49;;;;;;;14.18;1.92;;;;;;;29.09;98.37;99310.56;5072044;28;20227;-73
2023/08/02 06:54:16;;;;;;;13.77;1.80;;;;;;;29.23;94.10;99302.38;5071611;28;20209;-73
2023/08/02 06:56:43;;;;;;;11.60;1.70;;;;;;;29.46;92.75;99328.28;5072097;28;20210;-73
2023/08/02 06:59:10;;;;;;;18.25;2.53;;;;;;;29.65;93.34;99331.25;5072369;28;20205;-73
2023/08/02 07:01:36;;;;;;;11.68;1.75;;;;;;;29.70;91.60;99338.94;5072014;28;20194;-73
2023/08/02 07:04:05;;;;;;;8.38;1.50;;;;;;;29.08;89.63;99335.53;5072113;28;20202;-73
2023/08/02 07:06:32;;;;;;;16.38;2.13;;;;;;;28.85;90.22;99330.06;5072057;28;20226;-72
2023/08/02 07:08:58;;;;;;;14.73;2.03;;;;;;;28.96;88.87;99335.50;5072187;28;20232;-72
2023/08/02 07:11:25;;;;;;;11.18;1.63;;;;;;;28.97;88.52;99336.31;5071742;28;20199;-72
2023/08/02 07:13:52;;;;;;;14.23;1.92;;;;;;;28.90;89.85;99343.94;5071922;28;20207;-72
2023/08/02 07:16:19;;;;;;;11.75;1.80;;;;;;;28.89;90.71;99347.59;5071652;28;20195;-73
2023/08/02 07:18:46;;;;;;;13.43;1.95;;;;;;;28.56;91.66;99345.47;5071962;28;20202;-73
2023/08/02 07:21:14;;;;;;;8.73;1.40;;;;;;;28.56;93.98;99345.47;5071916;28;20267;-73
2023/08/02 07:23:41;;;;;;;15.90;2.08;;;;;;;28.37;96.15;99357.50;5071513;28;20198;-72
2023/08/02 07:26:09;;;;;;;13.90;2.13;;;;;;;28.33;97.08;99338.19;5071608;28;20288;-73
2023/08/02 07:28:36;;;;;;;15.10;2.75;;;;;;;28.38;96.79;99361.88;5071693;28;20301;-73
2023/08/02 07:31:07;;;;;;;12.40;1.80;;;;;;;28.37;96.46;99354.84;5071506;28;20629;-73
2023/08/02 07:33:33;;;;;;;14.98;2.00;;;;;;;28.39;95.76;99342.28;5071458;28;20230;-72
2023/08/02 07:36:00;;;;;;;8.75;1.40;;;;;;;28.56;95.58;99349.94;5071423;28;20209;-74
2023/08/02 07:38:28;;;;;;;12.95;3.60;;;;;;;28.41;95.74;99324.31;5071502;28;20199;-73
2023/08/02 07:40:55;;;;;;;9.63;2.17;;;;;;;28.70;94.38;99341.84;5071205;28;20627;-72
2023/08/02 07:43:22;;;;;;;10.85;1.88;;;;;;;28.68;93.32;99337.59;5071545;28;20203;-73
2023/08/02 07:45:49;;;;;;;12.25;2.45;;;;;;;28.62;90.35;99322.81;5071125;28;20658;-74
2023/08/02 07:48:15;;;;;;;11.38;2.00;;;;;;;28.84;89.66;99344.38;5071400;28;20225;-74
2023/08/02 07:50:42;;;;;;;11.65;1.80;;;;;;;28.98;89.90;99352.25;5019251;28;20230;-73
2023/08/02 07:53:09;;;;;;;12.25;1.77;;;;;;;28.95;87.66;99356.94;5071253;28;20206;-74
2023/08/02 07:55:37;;;;;;;10.77;1.60;;;;;;;28.89;89.90;99336.91;5070243;28;20202;-73
2023/08/02 07:58:04;;;;;;;10.82;1.67;;;;;;;29.05;89.12;99361.50;5071008;28;20202;-75
2023/08/02 08:00:30;;;;;;;12.30;1.77;;;;;;;29.25;89.38;99353.88;5070952;28;20576;-73
2023/08/02 08:02:57;;;;;;;7.57;1.42;;;;;;;29.28;88.63;99365.22;5071336;28;20202;-74
2023/08/02 08:05:25;;;;;;;15.68;2.17;;;;;;;29.48;86.25;99356.59;5070799;28;20194;-73
2023/08/02 08:07:52;;;;;;;7.57;1.38;;;;;;;29.52;85.74;99349.19;5070912;28;20252;-73
2023/08/02 08:10:18;;;;;;;13.90;1.98;;;;;;;29.69;84.54;99359.47;5070729;28;20210;-73
2023/08/02 08:12:47;;;;;;;12.95;1.83;;;;;;;29.69;79.97;99353.28;5071197;28;20212;-72
2023/08/02 08:15:13;;;;;;;17.23;2.30;;;;;;;29.93;83.00;99352.28;5070805;28;20284;-73
2023/08/02 08:17:40;;;;;;;15.25;2.03;;;;;;;29.99;77.48;99357.19;5070779;28;20199;-72
2023/08/02 08:20:08;;;;;;;16.80;2.00;;;;;;;30.05;77.76;99339.81;5070672;28;20588;-71
2023/08/02 08:22:34;;;;;;;14.75;2.00;;;;;;;29.96;81.17;99349.41;5070706;28;20194;-72
2023/08/02 08:25:01;;;;;;;15.38;2.00;;;;;;;29.95;81.12;99361.06;5070754;28;20285;-81
2023/08/02 08:27:28;;;;;;;12.73;1.88;;;;;;;30.01;77.82;99360.59;5032944;28;20667;-78
2023/08/02 08:29:56;;;;;;;14.43;2.15;;;;;;;30.28;78.28;99367.47;5051691;28;20573;-73
2023/08/02 08:32:26;;;;;;;12.68;1.90;;;;;;;29.87;78.77;99288.63;5065060;28;20580;-74
2023/08/02 08:34:54;;;;;;;16.25;2.13;;;;;;;30.55;73.43;99369.84;5070460;28;20212;-73
2023/08/02 08:37:21;;;;;;;10.98;1.60;;;;;;;30.57;73.82;99374.13;5070508;28;20702;-74
2023/08/02 08:39:47;;;;;;;12.55;1.90;;;;;;;30.79;72.87;99374.13;5070312;28;20208;-75
2023/08/02 08:42:14;;;;;;;13.82;2.30;;;;;;;30.91;70.76;99383.00;5070608;28;20209;-74
2023/08/02 08:44:41;;;;;;;13.65;1.85;;;;;;;30.68;68.36;99382.13;5067086;28;20202;-74
2023/08/02 08:47:10;;;;;;;8.90;1.50;;;;;;;30.84;69.47;99382.66;5069700;28;20579;-74
2023/08/02 08:49:37;;;;;;;15.20;2.13;;;;;;;30.87;70.96;99381.53;5068875;28;20645;-71
2023/08/02 08:52:06;;;;;;;11.88;1.80;;;;;;;30.93;70.53;99359.63;5060763;28;20225;-70
2023/08/02 08:54:36;;;;;;;13.18;1.88;;;;;;;31.12;70.60;99375.97;5054860;28;20219;-71
2023/08/02 08:57:05;;;;;;;12.90;1.80;;;;;;;31.15;68.88;99374.84;5060089;28;20320;-72
2023/08/02 08:59:32;;;;;;;13.05;2.38;;;;;;;30.72;65.95;99343.44;5069998;28;20217;-70
2023/08/02 09:02:00;;;;;;;16.40;2.17;;;;;;;31.02;63.02;99379.50;5068232;28;20209;-71
2023/08/02 09:04:31;;;;;;;11.00;1.60;;;;;;;30.86;64.14;99343.19;5069492;28;20206;-71
2023/08/02 09:06:57;;;;;;;9.55;1.50;;;;;;;31.09;63.90;99378.03;5072208;28;20217;-71
2023/08/02 09:09:24;;;;;;;10.65;1.63;;;;;;;31.26;62.22;99377.50;5055909;28;20217;-72
2023/08/02 09:11:51;;;;;;;14.48;1.95;;;;;;;31.15;60.99;99385.56;5062174;28;20190;-71
2023/08/02 09:14:18;;;;;;;15.13;2.13;;;;;;;31.22;60.95;99370.69;5074636;28;20202;-70
2023/08/02 09:17:06;;;;;;;14.43;1.98;;;;;;;31.38;60.08;99388.09;5055455;28;20194;-71
2023/08/02 09:19:36;;;;;;;10.85;1.70;;;;;;;31.42;59.20;99388.69;4993092;28;20205;-71
2023/08/02 09:22:11;;;;;;;14.65;2.17;;;;;;;31.50;57.13;99390.75;4992666;28;20257;-71
2023/08/02 09:24:40;;;;;;;7.80;1.40;;;;;;;31.71;57.47;99389.88;4992704;28;20208;-70
2023/08/02 09:27:08;;;;;;;11.85;1.77;;;;;;;31.82;57.42;99391.66;4992342;28;20224;-71
2023/08/02 09:29:46;;;;;;;9.85;1.95;;;;;;;31.95;55.21;99392.31;4992476;28;20746;-72
2023/08/02 09:32:13;;;;;;;12.57;1.77;;;;;;;31.67;55.59;99352.72;4992691;28;20196;-71
2023/08/02 09:34:46;;;;;;;14.98;1.98;;;;;;;31.94;53.75;99395.97;4992456;28;20211;-70
2023/08/02 09:37:13;;;;;;;13.57;2.28;;;;;;;31.93;54.48;99389.75;4992384;28;20201;-71
2023/08/02 09:39:41;;;;;;;12.77;1.92;;;;;;;32.16;54.26;99395.03;4988119;28;20206;-71
2023/08/02 09:42:13;;;;;;;10.93;1.67;;;;;;;31.85;52.07;99354.69;4989290;28;20618;-74
2023/08/02 09:44:41;;;;;;;13.52;1.90;;;;;;;31.98;52.43;99385.84;4960600;28;20687;-74
2023/08/02 09:47:09;;;;;;;17.45;2.22;;;;;;;32.01;51.00;99402.53;4981529;28;20248;-71
2023/08/02 09:49:36;;;;;;;20.88;2.42;;;;;;;31.74;51.73;99373.50;4976483;28;20295;-72
2023/08/02 09:52:05;;;;;;;8.38;1.58;;;;;;;31.76;51.25;99376.91;5011638;28;20662;-72
2023/08/02 09:54:32;;;;;;;10.93;1.58;;;;;;;32.07;53.52;99380.56;5011994;28;20211;-70
2023/08/02 09:57:01;;;;;;;9.75;1.60;;;;;;;32.33;52.45;99397.13;5045970;28;20199;-70
2023/08/02 09:59:30;;;;;;;13.88;1.95;;;;;;;32.16;52.37;99374.44;5073873;28;20676;-70
2023/08/02 10:01:58;;;;;;;11.73;1.63;;;;;;;32.12;51.94;99377.50;5073363;28;20206;-71
2023/08/02 10:04:25;;;;;;;8.45;1.40;;;;;;;32.17;52.25;99391.38;5073947;28;20677;-70
2023/08/02 10:06:57;;;;;;;11.77;1.67;;;;;;;32.39;51.51;99412.72;5073228;28;20226;-74
2023/08/02 10:09:31;;;;;;;9.60;1.52;;;;;;;32.34;53.36;99382.75;5073706;28;20202;-72
2023/08/02 10:12:02;;;;;;;11.73;1.73;;;;;;;32.50;51.03;99393.84;5073469;28;20221;-72
2023/08/02 10:14:31;;;;;;;11.70;1.70;;;;;;;32.49;50.30;99402.91;5054655;28;20216;-72
2023/08/02 10:17:00;;;;;;;9.32;1.45;;;;;;;32.43;49.59;99382.78;5073075;28;20202;-72
2023/08/02 10:19:28;;;;;;;8.50;1.80;;;;;;;32.62;49.44;99382.09;5072694;28;20635;-71
2023/08/02 10:21:57;;;;;;;10.23;1.70;;;;;;;32.62;49.37;99395.50;5021212;28;20226;-71
2023/08/02 10:24:27;;;;;;;12.82;1.70;;;;;;;32.72;49.54;99399.09;5073478;28;20234;-73
2023/08/02 10:26:56;;;;;;;13.60;1.83;;;;;;;32.64;49.76;99390.84;5072919;28;20222;-71
2023/08/02 10:29:24;;;;;;;12.43;1.80;;;;;;;32.73;50.86;99390.06;5073239;28;20210;-72
2023/08/02 10:31:51;;;;;;;13.23;1.83;;;;;;;32.48;53.92;99387.78;5072850;28;20281;-71
2023/08/02 10:34:50;;;;;;;13.57;1.75;;;;;;;32.39;56.29;99383.22;5021138;28;20199;-71
2023/08/02 10:37:19;;;;;;;9.95;1.50;;;;;;;32.30;56.41;99400.94;5072765;28;20202;-72
2023/08/02 10:39:53;;;;;;;9.20;1.50;;;;;;;32.30;55.52;99390.22;5072875;28;20197;-72
2023/08/02 10:42:22;;;;;;;9.13;1.40;;;;;;;32.09;56.15;99383.13;5072729;28;20281;-72
2023/08/02 10:45:14;;;;;;;12.55;1.98;;;;;;;32.33;54.68;99391.75;5073004;28;20233;-72
2023/08/02 10:47:41;;;;;;;7.25;1.20;;;;;;;32.25;55.14;99383.53;5072403;28;20558;-73
2023/08/02 10:50:09;;;;;;;11.68;1.67;;;;;;;32.32;54.94;99384.72;5072730;28;20257;-74
2023/08/02 10:52:37;;;;;;;6.38;1.13;;;;;;;32.62;54.57;99383.91;5072847;28;20206;-74
2023/08/02 10:55:11;;;;;;;9.75;1.50;;;;;;;32.31;54.06;99361.53;5072768;28;20200;-74
2023/08/02 10:57:39;;;;;;;10.68;1.55;;;;;;;32.39;54.18;99392.09;5072544;28;20194;-74
2023/08/02 11:00:17;;;;;;;12.52;1.77;;;;;;;32.56;52.99;99387.09;5072619;28;20206;-73
2023/08/02 11:02:49;;;;;;;10.32;1.55;;;;;;;32.72;52.64;99393.72;5072605;28;20205;-72
2023/08/02 11:05:19;;;;;;;18.73;2.28;;;;;;;32.51;51.66;99376.75;5072234;28;20643;-73
2023/08/02 11:08:00;;;;;;;13.15;1.95;;;;;;;32.74;51.95;99372.97;5072070;28;20245;-73
2023/08/02 11:10:28;;;;;;;13.20;1.80;;;;;;;32.79;52.20;99383.28;5072302;28;20672;-72
2023/08/02 11:12:55;;;;;;;10.70;1.63;;;;;;;32.66;49.16;99388.03;5072294;28;20206;-72
2023/08/02 11:15:23;;;;;;;12.38;1.73;;;;;;;32.40;49.25;99392.94;5072555;28;20203;-72
2023/08/02 11:17:55;;;;;;;12.73;1.75;;;;;;;32.44;49.40;99397.91;5071856;28;20206;-73
2023/08/02 11:20:28;;;;;;;19.08;2.55;;;;;;;32.43;49.65;99388.16;5072562;28;20281;-71
2023/08/02 11:25:37;;;;;;;9.00;1.85;;;;;;;32.02;50.25;99376.56;5108652;27;20540;-72
2023/08/02 11:28:05;;;;;;;16.73;2.35;;;;;;;32.21;52.21;99391.00;5108301;28;20197;-71
2023/08/02 11:30:33;;;;;;;7.18;1.42;;;;;;;32.26;51.67;99390.59;5108509;28;20209;-73
2023/08/02 11:33:00;;;;;;;11.30;1.77;;;;;;;32.38;52.80;99384.19;5108567;28;20197;-71